This is the latest recevied weather packets stored in our database for station/object KC9GSD. If no packets are shown the sender has not sent any weather packets the latest 1 day(s).
| Time | Temp. | Humidity | Pressure | Rain* | Wind** | Luminosity | Snow |
|---|---|---|---|---|---|---|---|
| 1778015828 | 22.22° C | 54% | 1012.2 hPa | 0 mm | 1.34 m/s, 143° | 260 W/m² | - |
| 1778015525 | 22.22° C | 54% | 1012.3 hPa | 0 mm | 0 m/s | 196 W/m² | - |
| 1778015222 | 22.22° C | 54% | 1012.2 hPa | 0 mm | 0.89 m/s, 180° | 190 W/m² | - |
| 1778014919 | 22.22° C | 53% | 1011.9 hPa | 0 mm | 0.89 m/s, 155° | 206 W/m² | - |
| 1778014616 | 22.78° C | 51% | 1011.8 hPa | 0 mm | 1.79 m/s, 193° | 247 W/m² | - |
| 1778014314 | 22.22° C | 51% | 1012 hPa | 0 mm | 0.89 m/s, 203° | 553 W/m² | - |
| 1778014010 | 21.67° C | 53% | 1012.2 hPa | 0 mm | 0.45 m/s, 113° | 172 W/m² | - |
| 1778013709 | 21.67° C | 53% | 1012.3 hPa | 0 mm | 0.45 m/s, 171° | 124 W/m² | - |
| 1778013405 | 21.67° C | 52% | 1012.4 hPa | 0 mm | 0.89 m/s, 147° | 94 W/m² | - |
| 1778013102 | 21.67° C | 53% | 1012.6 hPa | 0 mm | 0.89 m/s, 155° | 72 W/m² | - |
| 1778012798 | 21.67° C | 54% | 1012.5 hPa | 0 mm | 0.45 m/s, 164° | 96 W/m² | - |
| 1778012494 | 21.67° C | 53% | 1012.3 hPa | 0 mm | 0.45 m/s, 117° | 130 W/m² | - |
| 1778012191 | 22.22° C | 52% | 1012.4 hPa | 0 mm | 0.45 m/s, 157° | 99 W/m² | - |
| 1778011889 | 22.22° C | 53% | 1012.5 hPa | 0 mm | 0.45 m/s, 163° | 137 W/m² | - |
| 1778011586 | 22.78° C | 49% | 1012.6 hPa | 0 mm | 0.45 m/s, 110° | 176 W/m² | - |
| 1778011283 | 23.33° C | 49% | 1012.8 hPa | 0 mm | 0.89 m/s, 184° | 228 W/m² | - |
| 1778010979 | 23.33° C | 53% | 1013 hPa | 0 mm | 0 m/s | 253 W/m² | - |
| 1778010677 | 23.89° C | 49% | 1013.3 hPa | 0 mm | 0.45 m/s, 152° | 405 W/m² | - |
| 1778010374 | 24.44° C | 49% | 1013.2 hPa | 0 mm | 0 m/s | 431 W/m² | - |
| 1778010070 | 24.44° C | 44% | 1013.2 hPa | 0 mm | 0.45 m/s, 220° | 406 W/m² | - |
| 1778009767 | 25° C | 46% | 1013.2 hPa | 0 mm | 0.45 m/s, 132° | 430 W/m² | - |
| 1778009464 | 24.44° C | 44% | 1013.2 hPa | 0 mm | 0 m/s | 762 W/m² | - |
| 1778009163 | 24.44° C | 47% | 1013.3 hPa | 0 mm | 0.89 m/s, 170° | 477 W/m² | - |
| 1778008859 | 23.33° C | 54% | 1013.4 hPa | 0 mm | 0.89 m/s, 181° | 786 W/m² | - |
| 1778008558 | 23.89° C | 47% | 1013.5 hPa | 0 mm | 1.79 m/s, 148° | 499 W/m² | - |
* Rain latest hour (hover to see other rain measurements)
** Current wind speed in m/s (hover to see current wind gust speed)